Time;durP1;ratioP1;P1;durP2;ratioP2;P2;SDS_P1;SDS_P2;PMS_P1;PMS_P2;Temp;Humidity;BMP_temperature;BMP_pressure;BME280_temperature;BME280_humidity;BME280_pressure;Samples;Min_cycle;Max_cycle;Signal;HPM_P1;HPM_P2
2022/03/16 00:09:47;;;;;;;;;;;15.50;53.20;;;;;;20671536;28;19932;-57
2022/03/16 00:19:48;;;;;;;;;;;15.40;53.30;;;;;;20671268;28;20279;-58
2022/03/16 00:29:49;;;;;;;;;;;15.40;53.40;;;;;;20670580;28;19926;-58
2022/03/16 00:39:51;;;;;;;;;;;15.30;53.50;;;;;;20670625;28;20279;-59
2022/03/16 00:49:52;;;;;;;;;;;15.20;53.70;;;;;;20669574;28;20008;-59
2022/03/16 00:59:54;;;;;;;;;;;15.20;53.50;;;;;;20669323;28;19925;-60
2022/03/16 01:09:55;;;;;;;;;;;15.10;53.60;;;;;;20668918;28;20016;-57
2022/03/16 01:19:56;;;;;;;;;;;15.10;53.50;;;;;;20682919;28;19929;-57
2022/03/16 01:29:58;;;;;;;;;;;15.10;53.40;;;;;;20667454;28;19926;-57
2022/03/16 01:39:59;;;;;;;;;;;15.10;53.20;;;;;;20668732;28;19926;-57
2022/03/16 01:50:01;;;;;;;;;;;15.00;53.10;;;;;;20682618;28;19932;-61
2022/03/16 02:00:04;;;;;;;;;;;15.00;52.70;;;;;;20681420;28;19926;-57
2022/03/16 02:10:06;;;;;;;;;;;15.00;53.10;;;;;;20681050;28;19926;-58
2022/03/16 02:20:09;;;;;;;;;;;15.00;53.10;;;;;;20681073;28;20053;-59
2022/03/16 02:30:12;;;;;;;;;;;15.00;53.20;;;;;;20680252;28;19932;-57
2022/03/16 02:40:20;;;;;;;;;;;15.00;53.20;;;;;;20679696;28;19926;-58
2022/03/16 02:50:23;;;;;;;;;;;15.00;53.40;;;;;;20677904;28;19932;-60
2022/03/16 03:00:44;;;;;;;;;;;14.90;53.70;;;;;;20676501;28;19949;-59
2022/03/16 03:10:49;;;;;;;;;;;14.80;53.90;;;;;;20677058;28;20375;-59
2022/03/16 03:20:51;;;;;;;;;;;14.70;54.30;;;;;;20675868;28;19926;-61
2022/03/16 03:30:53;;;;;;;;;;;14.60;55.40;;;;;;20675130;28;19926;-60
2022/03/16 03:40:56;;;;;;;;;;;14.50;55.70;;;;;;20674139;28;19929;-56
2022/03/16 03:50:57;;;;;;;;;;;14.50;55.80;;;;;;20674208;28;20344;-56
2022/03/16 04:00:59;;;;;;;;;;;14.40;56.00;;;;;;20673836;28;20546;-56
2022/03/16 04:11:01;;;;;;;;;;;14.40;55.80;;;;;;20674529;28;20421;-59
2022/03/16 04:21:03;;;;;;;;;;;14.30;56.00;;;;;;20673063;28;19984;-59
2022/03/16 04:31:06;;;;;;;;;;;14.30;56.20;;;;;;20671561;28;20398;-57
2022/03/16 04:41:08;;;;;;;;;;;14.20;56.50;;;;;;20668541;28;19925;-56
2022/03/16 04:51:11;;;;;;;;;;;14.10;56.60;;;;;;20669393;28;19926;-58
2022/03/16 05:01:12;;;;;;;;;;;14.20;56.70;;;;;;20668607;28;20016;-57
2022/03/16 05:11:14;;;;;;;;;;;14.10;56.90;;;;;;20682838;28;19929;-58
2022/03/16 05:21:16;;;;;;;;;;;14.00;57.10;;;;;;20667766;28;19973;-57
2022/03/16 05:31:17;;;;;;;;;;;13.80;57.70;;;;;;20669304;28;20397;-60
2022/03/16 05:41:19;;;;;;;;;;;13.70;57.70;;;;;;20666564;28;19933;-62
2022/03/16 05:51:21;;;;;;;;;;;13.60;57.80;;;;;;20666275;28;19926;-57
2022/03/16 06:01:22;;;;;;;;;;;13.60;57.70;;;;;;20665979;28;19930;-58
2022/03/16 06:11:24;;;;;;;;;;;13.60;57.50;;;;;;20667297;28;19932;-59
2022/03/16 06:21:27;;;;;;;;;;;13.60;57.10;;;;;;20665841;28;19926;-56
2022/03/16 06:31:28;;;;;;;;;;;13.50;56.80;;;;;;20670791;28;19933;-57
2022/03/16 06:41:31;;;;;;;;;;;13.50;56.70;;;;;;20679538;28;20287;-59
2022/03/16 06:51:32;;;;;;;;;;;13.70;56.40;;;;;;20678378;28;19983;-60
2022/03/16 07:01:37;;;;;;;;;;;13.70;56.00;;;;;;20677464;28;19925;-57
2022/03/16 07:11:39;;;;;;;;;;;13.70;56.80;;;;;;20676794;28;19925;-57
2022/03/16 07:21:42;;;;;;;;;;;13.70;57.60;;;;;;20675125;28;20385;-56
2022/03/16 07:31:45;;;;;;;;;;;13.70;57.80;;;;;;20674361;28;19925;-58
2022/03/16 07:41:47;;;;;;;;;;;13.70;58.00;;;;;;20674052;28;19989;-58
2022/03/16 07:51:48;;;;;;;;;;;13.70;56.60;;;;;;20673243;28;20028;-57
2022/03/16 08:01:50;;;;;;;;;;;13.80;55.70;;;;;;20673129;28;19926;-58
2022/03/16 08:11:51;;;;;;;;;;;13.80;56.20;;;;;;20670189;28;20387;-59
2022/03/16 08:21:53;;;;;;;;;;;13.90;56.90;;;;;;20671744;28;20306;-59
2022/03/16 08:31:54;;;;;;;;;;;14.00;56.40;;;;;;20671138;28;19949;-59
2022/03/16 08:41:55;;;;;;;;;;;14.10;56.40;;;;;;20669584;28;19961;-59
2022/03/16 08:51:57;;;;;;;;;;;14.10;56.40;;;;;;20668826;28;20365;-61
2022/03/16 09:01:58;;;;;;;;;;;14.10;56.70;;;;;;20668828;28;20351;-56
2022/03/16 09:12:01;;;;;;;;;;;14.10;56.90;;;;;;20671890;28;19933;-61
2022/03/16 09:22:04;;;;;;;;;;;14.00;57.00;;;;;;20667804;28;19930;-61
2022/03/16 09:32:07;;;;;;;;;;;14.00;56.80;;;;;;20671925;28;19926;-58
2022/03/16 09:42:09;;;;;;;;;;;14.10;56.80;;;;;;20667302;28;19925;-58
2022/03/16 09:52:11;;;;;;;;;;;14.20;55.70;;;;;;20668248;28;19932;-59
2022/03/16 10:02:21;;;;;;;;;;;14.40;54.30;;;;;;20673930;28;19984;-59
2022/03/16 10:22:52;;;;;;;;;;;14.90;53.10;;;;;;20634875;28;19932;-63
2022/03/16 10:32:53;;;;;;;;;;;14.90;52.70;;;;;;20648523;28;19940;-59
2022/03/16 10:53:17;;;;;;;;;;;14.90;52.40;;;;;;20675085;28;20297;-55
2022/03/16 11:03:22;;;;;;;;;;;15.40;53.20;;;;;;20636108;28;19930;-58
2022/03/16 11:13:32;;;;;;;;;;;15.40;52.30;;;;;;20634580;28;19936;-61
2022/03/16 11:33:55;;;;;;;;;;;15.10;52.30;;;;;;20663130;28;20359;-66
2022/03/16 11:44:01;;;;;;;;;;;15.00;52.80;;;;;;20652085;28;20402;-61
2022/03/16 11:54:03;;;;;;;;;;;14.80;52.70;;;;;;20664820;28;19930;-63
2022/03/16 12:04:25;;;;;;;;;;;15.00;52.70;;;;;;20667438;28;19932;-67
2022/03/16 12:14:27;;;;;;;;;;;15.30;52.00;;;;;;20637611;28;20299;-61
2022/03/16 12:34:57;;;;;;;;;;;16.00;51.40;;;;;;20675023;28;20363;-67
2022/03/16 12:45:03;;;;;;;;;;;16.60;49.50;;;;;;20669302;28;19987;-60
2022/03/16 12:55:12;;;;;;;;;;;16.60;48.90;;;;;;20669637;28;19940;-63
2022/03/16 13:05:15;;;;;;;;;;;16.70;48.60;;;;;;20667623;28;19934;-62
2022/03/16 13:15:22;;;;;;;;;;;16.70;48.50;;;;;;20668988;28;19952;-62
2022/03/16 13:25:24;;;;;;;;;;;17.00;48.10;;;;;;20666975;28;19937;-61
2022/03/16 13:35:26;;;;;;;;;;;17.20;47.60;;;;;;20667683;28;19925;-62
2022/03/16 13:45:30;;;;;;;;;;;17.10;47.70;;;;;;20683576;28;20001;-62
2022/03/16 13:55:34;;;;;;;;;;;17.20;47.90;;;;;;20682645;28;20306;-62
2022/03/16 14:05:35;;;;;;;;;;;17.20;47.80;;;;;;20682356;28;20046;-65
2022/03/16 14:15:38;;;;;;;;;;;17.40;47.90;;;;;;20681026;28;20020;-63
2022/03/16 14:25:50;;;;;;;;;;;17.40;47.30;;;;;;20679839;28;19933;-60
2022/03/16 14:35:54;;;;;;;;;;;17.60;47.20;;;;;;20679354;28;20371;-60
2022/03/16 14:45:57;;;;;;;;;;;17.60;46.90;;;;;;20680613;28;19930;-61
2022/03/16 14:55:59;;;;;;;;;;;17.30;47.00;;;;;;20676153;28;19926;-63
2022/03/16 15:06:01;;;;;;;;;;;17.20;47.40;;;;;;20677372;28;19936;-63
2022/03/16 15:16:03;;;;;;;;;;;17.20;47.60;;;;;;20675575;28;20076;-61
2022/03/16 15:26:04;;;;;;;;;;;17.20;47.90;;;;;;20675512;28;19948;-61
2022/03/16 15:36:06;;;;;;;;;;;17.20;47.80;;;;;;20675127;28;19929;-62
2022/03/16 15:46:10;;;;;;;;;;;17.00;47.90;;;;;;20674581;28;20371;-63
2022/03/16 15:56:12;;;;;;;;;;;17.00;48.10;;;;;;20672003;28;19972;-60
2022/03/16 16:06:14;;;;;;;;;;;16.90;48.00;;;;;;20669815;28;19932;-62
2022/03/16 16:16:16;;;;;;;;;;;16.90;48.10;;;;;;20672579;28;20301;-64
2022/03/16 16:26:18;;;;;;;;;;;16.90;48.20;;;;;;20671279;28;20378;-62
2022/03/16 16:36:20;;;;;;;;;;;17.00;48.70;;;;;;20670025;28;19926;-63
2022/03/16 16:46:22;;;;;;;;;;;16.90;48.60;;;;;;20669307;28;20017;-62
2022/03/16 16:56:26;;;;;;;;;;;16.90;48.70;;;;;;20659502;28;19933;-68
2022/03/16 17:06:28;;;;;;;;;;;16.80;50.20;;;;;;20747266;28;20298;-64
2022/03/16 17:16:30;;;;;;;;;;;16.70;49.40;;;;;;20713743;28;20061;-63
2022/03/16 17:26:34;;;;;;;;;;;16.60;50.20;;;;;;20666673;28;20362;-64
2022/03/16 17:36:36;;;;;;;;;;;16.40;50.70;;;;;;20664253;28;20045;-63
2022/03/16 17:46:38;;;;;;;;;;;16.20;52.70;;;;;;20657176;28;20397;-61
2022/03/16 17:56:45;;;;;;;;;;;16.50;53.90;;;;;;20651009;28;20020;-59
2022/03/16 18:06:48;;;;;;;;;;;16.90;54.20;;;;;;20662499;28;19930;-63
2022/03/16 18:16:49;;;;;;;;;;;16.70;53.50;;;;;;20659135;28;19926;-70
2022/03/16 18:26:53;;;;;;;;;;;16.00;55.40;;;;;;20668159;28;19933;-62
2022/03/16 18:36:55;;;;;;;;;;;15.60;56.40;;;;;;20677697;28;20016;-64
2022/03/16 18:46:56;;;;;;;;;;;15.10;57.60;;;;;;20676919;28;19953;-58
2022/03/16 18:56:57;;;;;;;;;;;15.10;57.70;;;;;;20678981;28;20358;-58
2022/03/16 19:07:00;;;;;;;;;;;14.50;59.00;;;;;;20677696;28;19926;-71
2022/03/16 19:17:04;;;;;;;;;;;14.30;59.90;;;;;;20676096;28;19929;-58
2022/03/16 19:27:09;;;;;;;;;;;14.20;59.90;;;;;;20675366;28;19926;-62
2022/03/16 19:37:14;;;;;;;;;;;14.40;60.20;;;;;;20672066;28;20047;-60
2022/03/16 19:47:15;;;;;;;;;;;13.90;61.00;;;;;;20674994;28;20293;-63
2022/03/16 19:57:17;;;;;;;;;;;13.60;62.40;;;;;;20608533;28;19926;-67
2022/03/16 20:07:22;;;;;;;;;;;13.90;62.10;;;;;;20592910;28;20291;-61
2022/03/16 20:17:27;;;;;;;;;;;13.50;62.50;;;;;;20659573;28;19973;-63
2022/03/16 20:27:29;;;;;;;5.70;2.50;;;13.30;62.90;;;;;;20670116;28;20016;-63
2022/03/16 20:37:31;;;;;;;16.17;4.47;;;13.20;63.30;;;;;;20670410;28;20069;-60
2022/03/16 20:47:34;;;;;;;16.08;4.53;;;13.40;62.50;;;;;;20669761;28;20047;-64
2022/03/16 20:57:46;;;;;;;15.70;5.32;;;13.30;64.50;;;;;;20684054;28;20058;-69
2022/03/16 21:07:52;;;;;;;14.80;5.35;;;13.20;63.70;;;;;;20667526;28;20085;-69
2022/03/16 21:17:54;;;;;;;12.38;4.88;;;13.20;63.90;;;;;;20667378;28;20384;-69
2022/03/16 21:27:56;;;;;;;22.48;5.45;;;13.20;63.90;;;;;;20666152;28;20077;-68
2022/03/16 21:37:58;;;;;;;75.97;7.20;;;13.00;64.10;;;;;;20665242;28;20050;-68
2022/03/16 21:48:03;;;;;;;17.08;4.45;;;13.10;64.10;;;;;;20666647;28;20101;-67
2022/03/16 21:58:05;;;;;;;25.65;4.20;;;13.10;64.20;;;;;;20666869;28;20140;-68
2022/03/16 22:08:11;;;;;;;20.55;3.67;;;13.00;64.60;;;;;;20681458;28;20561;-68
2022/03/16 22:18:14;;;;;;;15.05;4.07;;;13.00;65.00;;;;;;20680980;28;20475;-68
2022/03/16 22:28:17;;;;;;;18.10;4.65;;;12.90;65.20;;;;;;20679533;28;20152;-69
2022/03/16 22:38:19;;;;;;;11.38;3.58;;;13.00;65.40;;;;;;20694134;28;20455;-66
2022/03/16 22:48:21;;;;;;;20.67;3.88;;;12.90;65.80;;;;;;20678213;28;20054;-68
2022/03/16 22:58:22;;;;;;;17.55;3.63;;;12.90;65.90;;;;;;20677492;28;20046;-69
2022/03/16 23:08:24;;;;;;;20.73;3.85;;;13.00;65.80;;;;;;20675974;28;20479;-68
2022/03/16 23:18:27;;;;;;;19.27;4.07;;;12.90;65.50;;;;;;20676848;28;20132;-66
2022/03/16 23:28:29;;;;;;;18.38;3.80;;;12.90;65.30;;;;;;20674897;28;20058;-68
2022/03/16 23:38:31;;;;;;;19.00;4.13;;;12.80;65.30;;;;;;20674080;28;20054;-66
2022/03/16 23:48:32;;;;;;;16.20;4.03;;;12.80;65.30;;;;;;20673685;28;20057;-67
2022/03/16 23:58:34;;;;;;;19.63;4.05;;;12.90;65.30;;;;;;20674077;28;20057;-65
